KUVA/UVA METAR and TAF weather

Enter ICAO airport designator
Station Type Date Time Source
KUVA METAR 2020/09/27 01:15 UTC NOAA

KUVA 270115Z AUTO 14004KT 10SM CLR 30/16 A2981 RMK AO2 T02950156


Station Type Date Time Source
KUVA Decoded METAR 2020/09/27 01:15 UTC NOAA

Uvalde, Garner Field Airport, TX, United States (KUVA) 29-12-40N 099-44-36W
Sep 26, 2020 - 09:15 PM EDT / 2020.09.27 0115 UTC
Wind: from the SE (140 degrees) at 5 MPH (4 KT):0
Visibility: 10 mile(s):0
Sky conditions: clear
Temperature: 85.1 F (29.5 C)
Dew Point: 60.1 F (15.6 C)
Relative Humidity: 42%
Pressure (altimeter): 29.81 in. Hg (1009 hPa)
ob: KUVA 270115Z AUTO 14004KT 10SM CLR 30/16 A2981 RMK AO2 T02950156
cycle: 1

Station Type Date Time Source
KUVA TAF UTC NOAA

Error!

Example: see airport list